sensor_id;sensor_type;location;lat;lon;timestamp;pressure;altitude;pressure_sealevel;temperature;humidity
76680;BME280;65597;51.520;-0.224;2023-10-08T00:01:35;102389.86;;;17.62;47.22
76680;BME280;65597;51.520;-0.224;2023-10-08T00:04:00;102390.02;;;17.05;47.30
76680;BME280;65597;51.520;-0.224;2023-10-08T00:06:26;102390.60;;;17.35;47.21
76680;BME280;65597;51.520;-0.224;2023-10-08T00:08:51;102386.16;;;17.02;47.22
76680;BME280;65597;51.520;-0.224;2023-10-08T00:11:17;102388.39;;;17.18;47.28
76680;BME280;65597;51.520;-0.224;2023-10-08T00:13:42;102388.21;;;16.94;47.25
76680;BME280;65597;51.520;-0.224;2023-10-08T00:16:08;102387.91;;;16.94;47.22
76680;BME280;65597;51.520;-0.224;2023-10-08T00:18:33;102387.72;;;17.49;47.03
76680;BME280;65597;51.520;-0.224;2023-10-08T00:20:58;102389.34;;;17.19;46.99
76680;BME280;65597;51.520;-0.224;2023-10-08T00:23:24;102391.74;;;16.90;46.98
76680;BME280;65597;51.520;-0.224;2023-10-08T00:25:49;102388.03;;;17.15;46.93
76680;BME280;65597;51.520;-0.224;2023-10-08T00:28:14;102384.80;;;17.15;46.81
76680;BME280;65597;51.520;-0.224;2023-10-08T00:30:40;102383.66;;;16.89;46.76
76680;BME280;65597;51.520;-0.224;2023-10-08T00:33:05;102381.57;;;16.76;47.13
76680;BME280;65597;51.520;-0.224;2023-10-08T00:35:32;102381.86;;;16.78;47.02
76680;BME280;65597;51.520;-0.224;2023-10-08T00:37:55;102383.98;;;16.63;46.85
76680;BME280;65597;51.520;-0.224;2023-10-08T00:40:20;102390.85;;;16.74;46.65
76680;BME280;65597;51.520;-0.224;2023-10-08T00:42:46;102391.94;;;16.82;46.57
76680;BME280;65597;51.520;-0.224;2023-10-08T00:45:11;102392.75;;;16.99;46.44
76680;BME280;65597;51.520;-0.224;2023-10-08T00:47:36;102395.49;;;16.55;46.36
76680;BME280;65597;51.520;-0.224;2023-10-08T00:50:01;102392.63;;;17.08;46.17
76680;BME280;65597;51.520;-0.224;2023-10-08T00:52:26;102396.12;;;16.76;46.58
76680;BME280;65597;51.520;-0.224;2023-10-08T00:54:51;102398.33;;;16.72;46.31
76680;BME280;65597;51.520;-0.224;2023-10-08T00:57:19;102399.31;;;16.92;46.36
76680;BME280;65597;51.520;-0.224;2023-10-08T00:59:41;102398.85;;;16.76;46.22
76680;BME280;65597;51.520;-0.224;2023-10-08T01:02:07;102400.22;;;17.07;46.10
76680;BME280;65597;51.520;-0.224;2023-10-08T01:04:32;102400.05;;;16.83;46.04
76680;BME280;65597;51.520;-0.224;2023-10-08T01:06:58;102400.20;;;16.87;45.93
76680;BME280;65597;51.520;-0.224;2023-10-08T01:09:23;102399.85;;;17.10;45.82
76680;BME280;65597;51.520;-0.224;2023-10-08T01:14:13;102402.82;;;17.16;45.64
76680;BME280;65597;51.520;-0.224;2023-10-08T01:16:38;102399.53;;;16.93;45.75
76680;BME280;65597;51.520;-0.224;2023-10-08T01:19:04;102396.63;;;16.95;45.75
76680;BME280;65597;51.520;-0.224;2023-10-08T01:21:29;102395.79;;;17.00;45.75
76680;BME280;65597;51.520;-0.224;2023-10-08T01:23:54;102396.03;;;17.05;45.63
76680;BME280;65597;51.520;-0.224;2023-10-08T01:26:20;102396.96;;;16.58;45.59
76680;BME280;65597;51.520;-0.224;2023-10-08T01:28:45;102396.06;;;17.07;45.63
76680;BME280;65597;51.520;-0.224;2023-10-08T01:31:10;102390.66;;;17.05;45.58
76680;BME280;65597;51.520;-0.224;2023-10-08T01:33:35;102392.24;;;16.82;45.56
76680;BME280;65597;51.520;-0.224;2023-10-08T01:36:01;102387.76;;;16.58;45.49
76680;BME280;65597;51.520;-0.224;2023-10-08T01:38:26;102385.58;;;17.05;45.50
76680;BME280;65597;51.520;-0.224;2023-10-08T01:40:51;102388.82;;;17.05;45.51
76680;BME280;65597;51.520;-0.224;2023-10-08T01:43:17;102388.85;;;16.79;45.54
76680;BME280;65597;51.520;-0.224;2023-10-08T01:45:42;102394.05;;;17.03;45.53
76680;BME280;65597;51.520;-0.224;2023-10-08T01:48:09;102391.01;;;17.04;45.50
76680;BME280;65597;51.520;-0.224;2023-10-08T01:50:32;102392.24;;;16.77;45.52
76680;BME280;65597;51.520;-0.224;2023-10-08T01:52:58;102391.53;;;17.25;45.51
76680;BME280;65597;51.520;-0.224;2023-10-08T01:55:23;102391.86;;;16.99;45.53
76680;BME280;65597;51.520;-0.224;2023-10-08T01:57:50;102389.16;;;16.72;45.55
76680;BME280;65597;51.520;-0.224;2023-10-08T02:00:15;102393.45;;;16.94;45.53
76680;BME280;65597;51.520;-0.224;2023-10-08T02:02:39;102395.73;;;16.70;45.49
76680;BME280;65597;51.520;-0.224;2023-10-08T02:05:05;102395.71;;;16.89;45.54
76680;BME280;65597;51.520;-0.224;2023-10-08T02:07:30;102396.14;;;16.89;45.54
76680;BME280;65597;51.520;-0.224;2023-10-08T02:09:55;102398.26;;;16.41;45.51
76680;BME280;65597;51.520;-0.224;2023-10-08T02:12:21;102395.60;;;17.09;45.52
76680;BME280;65597;51.520;-0.224;2023-10-08T02:14:46;102393.43;;;16.84;45.59
76680;BME280;65597;51.520;-0.224;2023-10-08T02:17:11;102391.41;;;16.36;45.65
76680;BME280;65597;51.520;-0.224;2023-10-08T02:19:36;102388.52;;;16.82;45.68
76680;BME280;65597;51.520;-0.224;2023-10-08T02:22:01;102386.05;;;16.60;45.65
76680;BME280;65597;51.520;-0.224;2023-10-08T02:24:28;102384.40;;;16.59;45.66
76680;BME280;65597;51.520;-0.224;2023-10-08T02:26:52;102381.27;;;16.84;45.62
76680;BME280;65597;51.520;-0.224;2023-10-08T02:29:18;102381.15;;;16.83;45.60
76680;BME280;65597;51.520;-0.224;2023-10-08T02:31:43;102383.27;;;16.82;45.52
76680;BME280;65597;51.520;-0.224;2023-10-08T02:34:08;102384.62;;;16.80;45.51
76680;BME280;65597;51.520;-0.224;2023-10-08T02:36:35;102382.61;;;16.51;45.56
76680;BME280;65597;51.520;-0.224;2023-10-08T02:38:58;102376.66;;;16.76;45.52
76680;BME280;65597;51.520;-0.224;2023-10-08T02:41:24;102372.38;;;17.00;45.40
76680;BME280;65597;51.520;-0.224;2023-10-08T02:43:49;102370.43;;;16.75;45.32
76680;BME280;65597;51.520;-0.224;2023-10-08T02:46:14;102371.14;;;16.76;45.30
76680;BME280;65597;51.520;-0.224;2023-10-08T02:48:40;102376.71;;;16.98;45.31
76680;BME280;65597;51.520;-0.224;2023-10-08T02:51:05;102379.55;;;16.70;45.38
76680;BME280;65597;51.520;-0.224;2023-10-08T02:53:31;102377.30;;;16.89;45.44
76680;BME280;65597;51.520;-0.224;2023-10-08T02:55:56;102374.95;;;16.44;45.39
76680;BME280;65597;51.520;-0.224;2023-10-08T02:58:21;102371.72;;;16.63;45.40
76680;BME280;65597;51.520;-0.224;2023-10-08T03:00:48;102368.15;;;16.61;45.40
76680;BME280;65597;51.520;-0.224;2023-10-08T03:03:12;102373.97;;;16.58;45.37
76680;BME280;65597;51.520;-0.224;2023-10-08T03:05:37;102373.92;;;16.55;45.43
76680;BME280;65597;51.520;-0.224;2023-10-08T03:08:03;102378.62;;;16.54;45.46
76680;BME280;65597;51.520;-0.224;2023-10-08T03:10:27;102380.24;;;16.28;45.44
76680;BME280;65597;51.520;-0.224;2023-10-08T03:12:54;102382.68;;;16.26;45.40
76680;BME280;65597;51.520;-0.224;2023-10-08T03:15:17;102384.15;;;16.53;45.10
76680;BME280;65597;51.520;-0.224;2023-10-08T03:17:43;102384.45;;;16.97;44.92
76680;BME280;65597;51.520;-0.224;2023-10-08T03:20:09;102386.32;;;16.47;44.81
76680;BME280;65597;51.520;-0.224;2023-10-08T03:22:33;102390.15;;;16.22;44.93
76680;BME280;65597;51.520;-0.224;2023-10-08T03:24:59;102394.35;;;16.63;45.14
76680;BME280;65597;51.520;-0.224;2023-10-08T03:27:24;102396.22;;;16.57;45.28
76680;BME280;65597;51.520;-0.224;2023-10-08T03:29:49;102399.17;;;16.68;45.31
76680;BME280;65597;51.520;-0.224;2023-10-08T03:32:15;102396.54;;;16.42;45.34
76680;BME280;65597;51.520;-0.224;2023-10-08T03:34:43;102398.45;;;16.37;45.50
76680;BME280;65597;51.520;-0.224;2023-10-08T03:37:07;102396.81;;;16.63;45.63
76680;BME280;65597;51.520;-0.224;2023-10-08T03:39:31;102404.37;;;16.47;45.46
76680;BME280;65597;51.520;-0.224;2023-10-08T03:41:56;102404.64;;;16.24;45.38
76680;BME280;65597;51.520;-0.224;2023-10-08T03:44:22;102401.00;;;16.71;45.31
76680;BME280;65597;51.520;-0.224;2023-10-08T03:46:47;102400.70;;;16.25;45.20
76680;BME280;65597;51.520;-0.224;2023-10-08T03:49:13;102400.48;;;16.68;45.18
76680;BME280;65597;51.520;-0.224;2023-10-08T03:51:38;102403.38;;;16.44;45.13
76680;BME280;65597;51.520;-0.224;2023-10-08T03:54:04;102400.89;;;16.20;45.10
76680;BME280;65597;51.520;-0.224;2023-10-08T03:56:29;102400.51;;;15.95;45.08
76680;BME280;65597;51.520;-0.224;2023-10-08T03:58:54;102398.06;;;15.87;45.17
76680;BME280;65597;51.520;-0.224;2023-10-08T04:01:20;102400.18;;;16.14;45.11
76680;BME280;65597;51.520;-0.224;2023-10-08T04:03:45;102395.10;;;16.07;45.13
76680;BME280;65597;51.520;-0.224;2023-10-08T04:06:10;102397.18;;;15.99;45.29
76680;BME280;65597;51.520;-0.224;2023-10-08T04:08:35;102400.53;;;16.05;45.19
76680;BME280;65597;51.520;-0.224;2023-10-08T04:11:01;102396.27;;;15.80;45.23
76680;BME280;65597;51.520;-0.224;2023-10-08T04:13:28;102400.85;;;16.29;45.19
76680;BME280;65597;51.520;-0.224;2023-10-08T04:15:51;102399.84;;;16.03;45.29
76680;BME280;65597;51.520;-0.224;2023-10-08T04:18:16;102401.49;;;16.30;45.29
76680;BME280;65597;51.520;-0.224;2023-10-08T04:20:42;102398.05;;;16.04;45.39
76680;BME280;65597;51.520;-0.224;2023-10-08T04:23:08;102396.27;;;16.51;45.42
76680;BME280;65597;51.520;-0.224;2023-10-08T04:25:32;102391.98;;;16.25;45.46
76680;BME280;65597;51.520;-0.224;2023-10-08T04:27:59;102387.85;;;15.97;45.53
76680;BME280;65597;51.520;-0.224;2023-10-08T04:30:23;102386.72;;;16.21;45.33
76680;BME280;65597;51.520;-0.224;2023-10-08T04:32:48;102384.14;;;16.42;45.30
76680;BME280;65597;51.520;-0.224;2023-10-08T04:35:13;102385.99;;;15.98;45.30
76680;BME280;65597;51.520;-0.224;2023-10-08T04:37:38;102387.37;;;16.43;45.40
76680;BME280;65597;51.520;-0.224;2023-10-08T04:40:05;102386.54;;;16.20;45.36
76680;BME280;65597;51.520;-0.224;2023-10-08T04:42:28;102392.47;;;16.17;45.36
76680;BME280;65597;51.520;-0.224;2023-10-08T04:44:54;102389.11;;;16.17;45.36
76680;BME280;65597;51.520;-0.224;2023-10-08T04:47:19;102386.12;;;15.91;45.43
76680;BME280;65597;51.520;-0.224;2023-10-08T04:49:45;102386.60;;;16.11;45.50
76680;BME280;65597;51.520;-0.224;2023-10-08T04:52:09;102381.23;;;15.86;45.50
76680;BME280;65597;51.520;-0.224;2023-10-08T04:54:35;102379.40;;;16.10;45.44
76680;BME280;65597;51.520;-0.224;2023-10-08T04:57:01;102375.48;;;15.81;45.45
76680;BME280;65597;51.520;-0.224;2023-10-08T04:59:27;102376.71;;;16.06;45.28
76680;BME280;65597;51.520;-0.224;2023-10-08T05:01:51;102377.71;;;16.31;45.37
76680;BME280;65597;51.520;-0.224;2023-10-08T05:04:16;102380.80;;;15.80;45.49
76680;BME280;65597;51.520;-0.224;2023-10-08T05:06:42;102378.81;;;16.08;45.50
76680;BME280;65597;51.520;-0.224;2023-10-08T05:09:10;102380.98;;;15.97;45.58
76680;BME280;65597;51.520;-0.224;2023-10-08T05:11:33;102381.08;;;16.49;45.50
76680;BME280;65597;51.520;-0.224;2023-10-08T05:13:59;102378.29;;;16.25;45.54
76680;BME280;65597;51.520;-0.224;2023-10-08T05:16:23;102378.92;;;15.99;45.48
76680;BME280;65597;51.520;-0.224;2023-10-08T05:18:49;102379.09;;;16.23;45.47
76680;BME280;65597;51.520;-0.224;2023-10-08T05:21:14;102379.79;;;16.21;45.50
76680;BME280;65597;51.520;-0.224;2023-10-08T05:23:39;102379.41;;;16.00;45.43
76680;BME280;65597;51.520;-0.224;2023-10-08T05:26:06;102374.37;;;16.00;45.41
76680;BME280;65597;51.520;-0.224;2023-10-08T05:28:30;102371.02;;;15.73;45.34
76680;BME280;65597;51.520;-0.224;2023-10-08T05:30:55;102370.20;;;15.98;45.25
76680;BME280;65597;51.520;-0.224;2023-10-08T05:33:21;102368.35;;;15.91;45.32
76680;BME280;65597;51.520;-0.224;2023-10-08T05:35:46;102367.96;;;15.92;45.30
76680;BME280;65597;51.520;-0.224;2023-10-08T05:38:14;102372.67;;;16.15;45.25
76680;BME280;65597;51.520;-0.224;2023-10-08T05:40:37;102375.03;;;16.14;45.34
76680;BME280;65597;51.520;-0.224;2023-10-08T05:43:02;102379.29;;;15.67;45.32
76680;BME280;65597;51.520;-0.224;2023-10-08T05:45:27;102381.16;;;16.09;45.39
76680;BME280;65597;51.520;-0.224;2023-10-08T05:47:53;102378.31;;;15.86;45.32
76680;BME280;65597;51.520;-0.224;2023-10-08T05:50:18;102383.25;;;15.89;45.24
76680;BME280;65597;51.520;-0.224;2023-10-08T05:52:44;102382.19;;;15.64;45.26
76680;BME280;65597;51.520;-0.224;2023-10-08T05:55:09;102382.99;;;15.82;45.33
76680;BME280;65597;51.520;-0.224;2023-10-08T05:57:34;102385.19;;;15.83;45.24
76680;BME280;65597;51.520;-0.224;2023-10-08T05:59:59;102389.37;;;16.20;45.37
76680;BME280;65597;51.520;-0.224;2023-10-08T06:02:27;102390.12;;;15.79;45.28
76680;BME280;65597;51.520;-0.224;2023-10-08T06:04:49;102392.46;;;15.96;45.31
76680;BME280;65597;51.520;-0.224;2023-10-08T06:07:15;102393.62;;;15.61;45.43
76680;BME280;65597;51.520;-0.224;2023-10-08T06:09:40;102389.63;;;15.72;45.22
76680;BME280;65597;51.520;-0.224;2023-10-08T06:12:06;102392.43;;;15.77;45.16
76680;BME280;65597;51.520;-0.224;2023-10-08T06:14:32;102391.35;;;15.52;45.16
76680;BME280;65597;51.520;-0.224;2023-10-08T06:16:56;102394.01;;;15.96;45.25
76680;BME280;65597;51.520;-0.224;2023-10-08T06:19:21;102391.35;;;15.99;45.22
76680;BME280;65597;51.520;-0.224;2023-10-08T06:21:47;102390.84;;;15.76;45.10
76680;BME280;65597;51.520;-0.224;2023-10-08T06:24:12;102386.41;;;15.95;45.20
76680;BME280;65597;51.520;-0.224;2023-10-08T06:26:38;102384.73;;;15.72;45.12
76680;BME280;65597;51.520;-0.224;2023-10-08T06:29:03;102385.81;;;15.70;45.11
76680;BME280;65597;51.520;-0.224;2023-10-08T06:31:28;102387.43;;;15.93;45.16
76680;BME280;65597;51.520;-0.224;2023-10-08T06:33:53;102390.49;;;16.17;45.12
76680;BME280;65597;51.520;-0.224;2023-10-08T06:36:18;102392.17;;;15.96;45.02
76680;BME280;65597;51.520;-0.224;2023-10-08T06:38:46;102390.76;;;15.68;45.04
76680;BME280;65597;51.520;-0.224;2023-10-08T06:41:11;102393.18;;;15.90;45.08
76680;BME280;65597;51.520;-0.224;2023-10-08T06:43:34;102395.53;;;15.70;44.99
76680;BME280;65597;51.520;-0.224;2023-10-08T06:45:59;102399.25;;;15.94;44.86
76680;BME280;65597;51.520;-0.224;2023-10-08T06:48:24;102400.92;;;15.92;44.90
76680;BME280;65597;51.520;-0.224;2023-10-08T06:50:52;102400.19;;;15.68;44.84
76680;BME280;65597;51.520;-0.224;2023-10-08T06:53:15;102398.76;;;16.19;44.75
76680;BME280;65597;51.520;-0.224;2023-10-08T06:55:41;102396.88;;;15.68;44.89
76680;BME280;65597;51.520;-0.224;2023-10-08T06:58:05;102396.40;;;15.66;45.00
76680;BME280;65597;51.520;-0.224;2023-10-08T07:00:31;102398.32;;;15.89;45.19
76680;BME280;65597;51.520;-0.224;2023-10-08T07:02:57;102398.89;;;15.92;45.14
76680;BME280;65597;51.520;-0.224;2023-10-08T07:05:21;102398.60;;;15.93;45.19
76680;BME280;65597;51.520;-0.224;2023-10-08T07:07:46;102398.81;;;15.71;45.14
76680;BME280;65597;51.520;-0.224;2023-10-08T07:10:12;102400.57;;;15.83;45.25
76680;BME280;65597;51.520;-0.224;2023-10-08T07:12:37;102397.98;;;15.63;45.19
76680;BME280;65597;51.520;-0.224;2023-10-08T07:15:03;102400.56;;;15.65;45.30
76680;BME280;65597;51.520;-0.224;2023-10-08T07:17:27;102401.73;;;16.13;45.36
76680;BME280;65597;51.520;-0.224;2023-10-08T07:19:52;102401.36;;;15.89;45.34
76680;BME280;65597;51.520;-0.224;2023-10-08T07:22:18;102401.22;;;15.95;45.35
76680;BME280;65597;51.520;-0.224;2023-10-08T07:24:43;102405.47;;;15.75;45.43
76680;BME280;65597;51.520;-0.224;2023-10-08T07:27:10;102411.00;;;15.75;45.56
76680;BME280;65597;51.520;-0.224;2023-10-08T07:29:34;102415.30;;;16.28;45.18
76680;BME280;65597;51.520;-0.224;2023-10-08T07:31:59;102417.38;;;16.03;44.96
76680;BME280;65597;51.520;-0.224;2023-10-08T07:34:24;102418.23;;;15.80;44.95
76680;BME280;65597;51.520;-0.224;2023-10-08T07:36:50;102417.85;;;15.84;44.89
76680;BME280;65597;51.520;-0.224;2023-10-08T07:39:16;102422.30;;;16.10;44.88
76680;BME280;65597;51.520;-0.224;2023-10-08T07:41:40;102425.66;;;16.16;44.80
76680;BME280;65597;51.520;-0.224;2023-10-08T07:44:05;102425.22;;;16.04;44.94
76680;BME280;65597;51.520;-0.224;2023-10-08T07:46:31;102423.33;;;15.53;45.09
76680;BME280;65597;51.520;-0.224;2023-10-08T07:48:56;102418.51;;;16.02;45.09
76680;BME280;65597;51.520;-0.224;2023-10-08T07:51:22;102417.77;;;15.41;45.13
76680;BME280;65597;51.520;-0.224;2023-10-08T07:53:47;102417.77;;;15.77;45.00
76680;BME280;65597;51.520;-0.224;2023-10-08T07:56:12;102415.40;;;16.32;44.95
76680;BME280;65597;51.520;-0.224;2023-10-08T07:58:38;102409.64;;;16.11;44.94
76680;BME280;65597;51.520;-0.224;2023-10-08T08:01:06;102405.24;;;16.19;44.99
76680;BME280;65597;51.520;-0.224;2023-10-08T08:03:28;102401.70;;;15.75;44.91
76680;BME280;65597;51.520;-0.224;2023-10-08T08:05:53;102403.35;;;16.07;45.05
76680;BME280;65597;51.520;-0.224;2023-10-08T08:08:20;102402.73;;;16.09;45.32
76680;BME280;65597;51.520;-0.224;2023-10-08T08:10:45;102406.05;;;15.90;45.28
76680;BME280;65597;51.520;-0.224;2023-10-08T08:13:09;102412.84;;;15.90;45.38
76680;BME280;65597;51.520;-0.224;2023-10-08T08:15:34;102409.57;;;16.20;45.07
76680;BME280;65597;51.520;-0.224;2023-10-08T08:17:59;102411.31;;;16.25;44.89
76680;BME280;65597;51.520;-0.224;2023-10-08T08:20:24;102408.68;;;16.04;44.81
76680;BME280;65597;51.520;-0.224;2023-10-08T08:22:50;102413.39;;;16.35;44.48
76680;BME280;65597;51.520;-0.224;2023-10-08T08:25:15;102416.95;;;16.38;44.90
76680;BME280;65597;51.520;-0.224;2023-10-08T08:27:43;102414.71;;;16.10;44.87
76680;BME280;65597;51.520;-0.224;2023-10-08T08:30:07;102415.47;;;16.44;44.75
76680;BME280;65597;51.520;-0.224;2023-10-08T08:32:30;102416.23;;;16.25;44.88
76680;BME280;65597;51.520;-0.224;2023-10-08T08:34:57;102415.10;;;16.14;44.43
76680;BME280;65597;51.520;-0.224;2023-10-08T08:37:21;102417.49;;;16.40;44.49
76680;BME280;65597;51.520;-0.224;2023-10-08T08:39:50;102417.34;;;16.54;44.52
76680;BME280;65597;51.520;-0.224;2023-10-08T08:42:13;102419.09;;;16.14;44.76
76680;BME280;65597;51.520;-0.224;2023-10-08T08:44:41;102423.62;;;16.21;44.97
76680;BME280;65597;51.520;-0.224;2023-10-08T08:47:03;102423.10;;;16.51;44.77
76680;BME280;65597;51.520;-0.224;2023-10-08T08:49:30;102424.54;;;16.56;44.65
76680;BME280;65597;51.520;-0.224;2023-10-08T08:51:55;102426.60;;;16.60;44.57
76680;BME280;65597;51.520;-0.224;2023-10-08T08:54:19;102425.68;;;16.39;44.44
76680;BME280;65597;51.520;-0.224;2023-10-08T08:56:44;102422.60;;;16.77;44.53
76680;BME280;65597;51.520;-0.224;2023-10-08T08:59:09;102419.71;;;16.60;44.71
76680;BME280;65597;51.520;-0.224;2023-10-08T09:01:34;102418.10;;;16.64;44.56
76680;BME280;65597;51.520;-0.224;2023-10-08T09:04:00;102416.49;;;16.38;44.60
76680;BME280;65597;51.520;-0.224;2023-10-08T09:06:25;102413.36;;;16.21;44.38
76680;BME280;65597;51.520;-0.224;2023-10-08T09:08:50;102412.36;;;16.28;44.47
76680;BME280;65597;51.520;-0.224;2023-10-08T09:11:16;102413.18;;;16.58;44.49
76680;BME280;65597;51.520;-0.224;2023-10-08T09:13:41;102411.07;;;16.64;44.42
76680;BME280;65597;51.520;-0.224;2023-10-08T09:16:12;102416.40;;;16.93;44.25
76680;BME280;65597;51.520;-0.224;2023-10-08T09:18:31;102418.27;;;16.75;44.08
76680;BME280;65597;51.520;-0.224;2023-10-08T09:20:56;102422.47;;;16.79;44.05
76680;BME280;65597;51.520;-0.224;2023-10-08T09:23:23;102423.78;;;16.31;44.68
76680;BME280;65597;51.520;-0.224;2023-10-08T09:25:47;102419.24;;;16.62;44.52
76680;BME280;65597;51.520;-0.224;2023-10-08T09:28:13;102420.37;;;16.87;44.24
76680;BME280;65597;51.520;-0.224;2023-10-08T09:30:38;102418.56;;;16.87;43.95
76680;BME280;65597;51.520;-0.224;2023-10-08T09:33:04;102416.88;;;16.44;43.73
76680;BME280;65597;51.520;-0.224;2023-10-08T09:35:28;102418.12;;;16.97;43.65
76680;BME280;65597;51.520;-0.224;2023-10-08T09:37:54;102420.71;;;16.69;43.86
76680;BME280;65597;51.520;-0.224;2023-10-08T09:40:21;102421.16;;;17.16;43.70
76680;BME280;65597;51.520;-0.224;2023-10-08T09:42:44;102419.58;;;17.07;43.51
76680;BME280;65597;51.520;-0.224;2023-10-08T09:45:10;102422.58;;;16.65;43.63
76680;BME280;65597;51.520;-0.224;2023-10-08T09:47:38;102424.07;;;16.91;43.90
76680;BME280;65597;51.520;-0.224;2023-10-08T09:50:02;102428.39;;;16.91;43.49
76680;BME280;65597;51.520;-0.224;2023-10-08T09:52:37;102431.06;;;16.93;42.91
76680;BME280;65597;51.520;-0.224;2023-10-08T09:54:56;102437.25;;;16.75;42.97
76680;BME280;65597;51.520;-0.224;2023-10-08T09:57:16;102441.37;;;17.04;43.05
76680;BME280;65597;51.520;-0.224;2023-10-08T09:59:40;102442.47;;;17.08;42.55
76680;BME280;65597;51.520;-0.224;2023-10-08T10:02:06;102443.49;;;16.97;42.39
76680;BME280;65597;51.520;-0.224;2023-10-08T10:04:32;102444.70;;;16.95;42.73
76680;BME280;65597;51.520;-0.224;2023-10-08T10:06:56;102449.28;;;17.24;43.19
76680;BME280;65597;51.520;-0.224;2023-10-08T10:09:23;102450.44;;;16.74;42.93
76680;BME280;65597;51.520;-0.224;2023-10-08T10:11:48;102452.23;;;17.27;43.31
76680;BME280;65597;51.520;-0.224;2023-10-08T10:14:12;102455.74;;;17.00;43.64
76680;BME280;65597;51.520;-0.224;2023-10-08T10:16:39;102454.46;;;16.93;43.28
76680;BME280;65597;51.520;-0.224;2023-10-08T10:19:03;102455.19;;;17.44;43.29
76680;BME280;65597;51.520;-0.224;2023-10-08T10:21:31;102454.12;;;16.95;43.13
76680;BME280;65597;51.520;-0.224;2023-10-08T10:23:53;102452.32;;;17.26;43.18
76680;BME280;65597;51.520;-0.224;2023-10-08T10:26:24;102453.04;;;17.39;43.00
76680;BME280;65597;51.520;-0.224;2023-10-08T10:28:44;102454.04;;;17.99;42.79
76680;BME280;65597;51.520;-0.224;2023-10-08T10:31:18;102451.66;;;17.39;42.95
76680;BME280;65597;51.520;-0.224;2023-10-08T10:33:34;102450.12;;;17.45;43.10
76680;BME280;65597;51.520;-0.224;2023-10-08T10:36:00;102449.64;;;17.87;42.93
76680;BME280;65597;51.520;-0.224;2023-10-08T10:38:25;102449.41;;;17.94;43.03
76680;BME280;65597;51.520;-0.224;2023-10-08T10:40:52;102449.17;;;17.77;43.06
76680;BME280;65597;51.520;-0.224;2023-10-08T10:43:16;102447.50;;;18.18;42.58
76680;BME280;65597;51.520;-0.224;2023-10-08T10:45:41;102443.02;;;17.88;42.09
76680;BME280;65597;51.520;-0.224;2023-10-08T10:48:07;102444.56;;;18.21;41.36
76680;BME280;65597;51.520;-0.224;2023-10-08T10:50:32;102442.31;;;17.97;40.06
76680;BME280;65597;51.520;-0.224;2023-10-08T10:52:59;102443.96;;;18.66;40.69
76680;BME280;65597;51.520;-0.224;2023-10-08T10:55:23;102443.07;;;18.51;40.88
76680;BME280;65597;51.520;-0.224;2023-10-08T10:57:54;102443.27;;;18.43;40.62
76680;BME280;65597;51.520;-0.224;2023-10-08T11:00:15;102438.62;;;18.22;40.11
76680;BME280;65597;51.520;-0.224;2023-10-08T11:02:39;102437.72;;;18.08;39.93
76680;BME280;65597;51.520;-0.224;2023-10-08T11:05:06;102434.17;;;18.07;40.12
76680;BME280;65597;51.520;-0.224;2023-10-08T11:07:30;102434.64;;;18.30;40.22
76680;BME280;65597;51.520;-0.224;2023-10-08T11:09:56;102440.60;;;18.13;39.93
76680;BME280;65597;51.520;-0.224;2023-10-08T11:12:21;102441.45;;;18.38;40.30
76680;BME280;65597;51.520;-0.224;2023-10-08T11:14:47;102443.37;;;18.35;40.15
76680;BME280;65597;51.520;-0.224;2023-10-08T11:17:12;102448.57;;;18.65;40.21
76680;BME280;65597;51.520;-0.224;2023-10-08T11:19:37;102446.38;;;18.63;39.80
76680;BME280;65597;51.520;-0.224;2023-10-08T11:22:03;102442.18;;;18.29;40.12
76680;BME280;65597;51.520;-0.224;2023-10-08T11:24:29;102444.96;;;18.53;40.05
76680;BME280;65597;51.520;-0.224;2023-10-08T11:26:54;102445.58;;;18.98;39.82
76680;BME280;65597;51.520;-0.224;2023-10-08T11:29:20;102443.75;;;18.82;39.49
76680;BME280;65597;51.520;-0.224;2023-10-08T11:31:45;102442.71;;;19.03;39.28
76680;BME280;65597;51.520;-0.224;2023-10-08T11:34:11;102445.62;;;19.20;38.87
76680;BME280;65597;51.520;-0.224;2023-10-08T11:36:36;102446.34;;;19.68;38.63
76680;BME280;65597;51.520;-0.224;2023-10-08T11:39:08;102439.25;;;19.22;38.72
76680;BME280;65597;51.520;-0.224;2023-10-08T11:41:28;102436.35;;;18.93;38.61
76680;BME280;65597;51.520;-0.224;2023-10-08T11:43:52;102437.69;;;19.39;38.13
76680;BME280;65597;51.520;-0.224;2023-10-08T11:46:16;102435.47;;;19.77;37.93
76680;BME280;65597;51.520;-0.224;2023-10-08T11:48:42;102433.24;;;19.84;38.02
76680;BME280;65597;51.520;-0.224;2023-10-08T11:51:07;102427.50;;;19.40;38.33
76680;BME280;65597;51.520;-0.224;2023-10-08T11:53:34;102428.18;;;19.38;36.96
76680;BME280;65597;51.520;-0.224;2023-10-08T11:55:58;102423.54;;;19.57;36.32
76680;BME280;65597;51.520;-0.224;2023-10-08T11:58:23;102423.07;;;19.63;36.27
76680;BME280;65597;51.520;-0.224;2023-10-08T12:00:49;102424.47;;;19.87;36.38
76680;BME280;65597;51.520;-0.224;2023-10-08T12:03:15;102421.72;;;20.09;35.36
76680;BME280;65597;51.520;-0.224;2023-10-08T12:05:39;102420.56;;;20.15;34.77
76680;BME280;65597;51.520;-0.224;2023-10-08T12:08:05;102415.78;;;20.39;35.07
76680;BME280;65597;51.520;-0.224;2023-10-08T12:10:30;102411.58;;;19.93;34.61
76680;BME280;65597;51.520;-0.224;2023-10-08T12:12:55;102408.23;;;20.20;35.27
76680;BME280;65597;51.520;-0.224;2023-10-08T12:15:21;102407.74;;;20.37;35.20
76680;BME280;65597;51.520;-0.224;2023-10-08T12:17:48;102404.44;;;20.37;34.76
76680;BME280;65597;51.520;-0.224;2023-10-08T12:20:11;102405.94;;;20.42;35.13
76680;BME280;65597;51.520;-0.224;2023-10-08T12:22:36;102403.45;;;20.42;34.75
76680;BME280;65597;51.520;-0.224;2023-10-08T12:25:01;102400.78;;;20.31;34.81
76680;BME280;65597;51.520;-0.224;2023-10-08T12:27:26;102402.43;;;20.29;35.34
76680;BME280;65597;51.520;-0.224;2023-10-08T12:29:53;102404.59;;;20.58;34.49
76680;BME280;65597;51.520;-0.224;2023-10-08T12:32:17;102401.07;;;20.28;34.07